Time;durP1;ratioP1;P1;durP2;ratioP2;P2;SDS_P1;SDS_P2;PMS_P1;PMS_P2;Temp;Humidity;BMP_temperature;BMP_pressure;BME280_temperature;BME280_humidity;BME280_pressure;Samples;Min_cycle;Max_cycle;Signal;HPM_P1;HPM_P2
2020/12/18 00:01:31;;;;;;;21.63;15.17;;;5.80;99.90;;;;;;5012282;28;20635;-41
2020/12/18 00:03:59;;;;;;;16.17;14.37;;;5.80;99.90;;;;;;5012744;28;20240;-41
2020/12/18 00:06:34;;;;;;;15.60;14.10;;;5.70;99.90;;;;;;5012575;28;20232;-41
2020/12/18 00:09:01;;;;;;;15.00;13.40;;;5.60;99.90;;;;;;5012440;28;20291;-40
2020/12/18 00:11:29;;;;;;;16.83;14.70;;;5.60;99.90;;;;;;5012435;28;20213;-40
2020/12/18 00:13:56;;;;;;;20.30;15.40;;;5.60;99.90;;;;;;5012469;28;20206;-42
2020/12/18 00:16:26;;;;;;;14.23;12.73;;;5.50;99.90;;;;;;5012468;28;20700;-41
2020/12/18 00:18:53;;;;;;;16.57;13.40;;;5.50;99.90;;;;;;5012465;28;20271;-42
2020/12/18 00:21:22;;;;;;;13.13;11.77;;;5.60;99.90;;;;;;5012348;28;20213;-44
2020/12/18 00:23:49;;;;;;;20.20;14.07;;;5.60;99.90;;;;;;5012330;28;20644;-43
2020/12/18 00:26:17;;;;;;;14.50;13.10;;;5.60;99.90;;;;;;5012304;28;20208;-43
2020/12/18 00:28:46;;;;;;;12.20;11.03;;;5.60;99.90;;;;;;5012254;28;20275;-43
2020/12/18 00:31:14;;;;;;;13.03;11.73;;;5.50;99.90;;;;;;5012283;28;20341;-41
2020/12/18 00:33:41;;;;;;;13.60;12.20;;;5.60;99.90;;;;;;5012098;28;20236;-43
2020/12/18 00:36:11;;;;;;;15.90;13.87;;;5.50;99.90;;;;;;5011950;28;20240;-43
2020/12/18 00:38:38;;;;;;;16.77;12.70;;;5.50;99.90;;;;;;5011909;28;20588;-43
2020/12/18 00:41:05;;;;;;;15.17;13.60;;;5.50;99.90;;;;;;5011816;28;20265;-42
2020/12/18 00:43:33;;;;;;;17.63;14.10;;;5.50;99.90;;;;;;5012145;28;20268;-45
2020/12/18 00:46:03;;;;;;;19.00;14.60;;;5.50;99.90;;;;;;5011882;28;20256;-46
2020/12/18 00:48:30;;;;;;;15.93;13.37;;;5.50;99.90;;;;;;5012089;28;20304;-44
2020/12/18 00:51:08;;;;;;;16.70;14.57;;;5.60;99.90;;;;;;5013941;28;20216;-42
2020/12/18 00:53:36;;;;;;;13.10;11.80;;;5.50;99.90;;;;;;5015896;28;20292;-42
2020/12/18 00:56:07;;;;;;;13.77;12.37;;;5.50;99.90;;;;;;5015518;28;20261;-43
2020/12/18 00:58:34;;;;;;;14.40;12.47;;;5.60;99.90;;;;;;5015456;28;20264;-42
2020/12/18 01:01:02;;;;;;;16.47;14.07;;;5.60;99.90;;;;;;5015642;28;20300;-41
2020/12/18 01:03:30;;;;;;;14.77;13.27;;;5.60;99.90;;;;;;5015464;28;20209;-41
2020/12/18 01:05:57;;;;;;;14.93;13.40;;;5.70;99.90;;;;;;5015444;28;20210;-41
2020/12/18 01:08:24;;;;;;;14.97;12.83;;;5.70;99.90;;;;;;5015466;28;20644;-42
2020/12/18 01:10:51;;;;;;;19.30;14.47;;;5.70;99.90;;;;;;5015294;28;20723;-41
2020/12/18 01:13:18;;;;;;;13.73;11.80;;;5.70;99.90;;;;;;5015564;28;20220;-43
2020/12/18 01:15:45;;;;;;;21.53;19.53;;;5.70;99.90;;;;;;5015159;28;20225;-42
2020/12/18 01:18:13;;;;;;;17.37;13.23;;;5.70;99.90;;;;;;5015071;28;20555;-41
2020/12/18 01:20:40;;;;;;;15.00;13.20;;;5.70;99.90;;;;;;5015324;28;20218;-42
2020/12/18 01:23:07;;;;;;;14.83;13.53;;;5.80;99.90;;;;;;5015355;28;20217;-42
2020/12/18 01:25:34;;;;;;;14.03;12.63;;;5.70;99.90;;;;;;5015165;28;20295;-42
2020/12/18 01:28:01;;;;;;;19.33;13.93;;;5.70;99.90;;;;;;5059298;22;20649;-41
2020/12/18 01:30:28;;;;;;;17.27;14.00;;;5.70;99.90;;;;;;4995407;28;20309;-42
2020/12/18 01:32:55;;;;;;;47.07;42.20;;;5.70;99.90;;;;;;4995830;28;20310;-42
2020/12/18 01:35:23;;;;;;;17.13;15.55;;;5.70;99.90;;;;;;4996187;28;20225;-42
2020/12/18 01:37:50;;;;;;;27.03;24.17;;;5.70;99.90;;;;;;4996246;28;20242;-43
2020/12/18 01:40:17;;;;;;;20.83;14.32;;;5.70;99.90;;;;;;4995132;28;20256;-43
2020/12/18 01:42:44;;;;;;;18.27;13.83;;;5.80;99.90;;;;;;4995199;28;20293;-44
2020/12/18 01:45:11;;;;;;;11.90;10.73;;;5.80;99.90;;;;;;4995040;28;20693;-45
2020/12/18 01:47:38;;;;;;;12.83;11.60;;;5.90;99.90;;;;;;4995066;28;20349;-45
2020/12/18 01:50:06;;;;;;;12.93;11.70;;;5.90;99.90;;;;;;4995398;28;20260;-43
2020/12/18 01:52:35;;;;;;;15.33;12.53;;;5.90;99.90;;;;;;4995179;28;20637;-46
2020/12/18 01:55:04;;;;;;;14.30;12.80;;;5.90;99.90;;;;;;4994918;28;20230;-43
2020/12/18 01:57:33;;;;;;;12.65;11.20;;;5.90;99.90;;;;;;4994864;28;20229;-41
2020/12/18 02:00:01;;;;;;;11.93;10.70;;;5.90;99.90;;;;;;4994802;28;20206;-42
2020/12/18 02:02:29;;;;;;;11.77;10.70;;;5.90;99.90;;;;;;4994824;28;20293;-42
2020/12/18 02:04:56;;;;;;;13.10;11.80;;;6.00;99.90;;;;;;4994911;28;20280;-42
2020/12/18 02:07:25;;;;;;;12.00;10.87;;;6.10;99.90;;;;;;4995028;28;20301;-42
2020/12/18 02:09:53;;;;;;;13.67;12.23;;;6.10;99.90;;;;;;4994743;28;20241;-42
2020/12/18 02:12:20;;;;;;;12.80;11.60;;;6.10;99.90;;;;;;4994664;28;20280;-43
2020/12/18 02:14:49;;;;;;;12.10;11.00;;;6.00;99.90;;;;;;4994786;28;20277;-41
2020/12/18 02:17:17;;;;;;;12.37;11.17;;;5.90;99.90;;;;;;4994845;28;20293;-41
2020/12/18 02:19:50;;;;;;;12.07;11.07;;;5.90;99.90;;;;;;4994715;28;20668;-42
2020/12/18 02:22:19;;;;;;;12.05;10.90;;;5.90;99.90;;;;;;4994467;28;20210;-42
2020/12/18 02:24:51;;;;;;;12.27;11.07;;;5.90;99.90;;;;;;4994470;28;20306;-41
2020/12/18 02:27:19;;;;;;;11.47;10.57;;;5.90;99.90;;;;;;4994344;28;20241;-41
2020/12/18 02:29:46;;;;;;;11.18;10.27;;;5.90;99.90;;;;;;4994340;28;20576;-41
2020/12/18 02:32:13;;;;;;;10.88;9.88;;;5.90;99.90;;;;;;4994157;28;20680;-41
2020/12/18 02:34:40;;;;;;;12.40;11.40;;;5.90;99.90;;;;;;4994153;28;20345;-42
2020/12/18 02:37:07;;;;;;;11.10;10.10;;;5.90;99.90;;;;;;4993965;28;20297;-42
2020/12/18 02:39:35;;;;;;;11.90;10.90;;;5.90;99.90;;;;;;4993986;28;20782;-43
2020/12/18 02:42:02;;;;;;;13.77;11.17;;;5.90;99.90;;;;;;4993914;28;20687;-41
2020/12/18 02:44:30;;;;;;;10.95;9.98;;;5.90;99.90;;;;;;4994171;28;20245;-41
2020/12/18 02:46:57;;;;;;;12.60;11.50;;;5.80;99.90;;;;;;4993957;28;20220;-41
2020/12/18 02:49:24;;;;;;;11.88;10.80;;;5.80;99.90;;;;;;4993933;28;20621;-42
2020/12/18 02:51:51;;;;;;;12.03;10.93;;;5.80;99.90;;;;;;4993925;28;20625;-43
2020/12/18 02:54:18;;;;;;;11.65;10.60;;;5.80;99.90;;;;;;4994038;28;20297;-43
2020/12/18 02:56:45;;;;;;;11.63;10.57;;;5.90;99.90;;;;;;4993848;28;20597;-41
2020/12/18 02:59:12;;;;;;;12.40;11.30;;;5.90;99.90;;;;;;4993822;28;20340;-42
2020/12/18 03:01:40;;;;;;;12.23;11.13;;;6.00;99.90;;;;;;4993743;28;20209;-40
2020/12/18 03:04:07;;;;;;;12.35;11.15;;;6.00;99.90;;;;;;4993633;28;20305;-40
2020/12/18 03:06:34;;;;;;;11.82;10.85;;;6.10;99.90;;;;;;4993353;28;20252;-40
2020/12/18 03:09:01;;;;;;;11.00;10.00;;;6.00;99.90;;;;;;4993656;28;20292;-40
2020/12/18 03:11:28;;;;;;;10.95;10.00;;;5.90;99.90;;;;;;4993565;28;20687;-40
2020/12/18 03:13:55;;;;;;;12.03;10.93;;;5.80;99.90;;;;;;4992816;28;20210;-42
2020/12/18 03:16:22;;;;;;;11.95;10.95;;;5.80;99.90;;;;;;4993328;28;20704;-40
2020/12/18 03:18:50;;;;;;;12.00;10.97;;;5.80;99.90;;;;;;4993378;28;20296;-40
2020/12/18 03:21:17;;;;;;;11.57;10.50;;;5.80;99.90;;;;;;4993241;28;20256;-41
2020/12/18 03:23:44;;;;;;;11.47;10.47;;;5.80;99.90;;;;;;4993516;28;20212;-42
2020/12/18 03:26:11;;;;;;;11.95;10.90;;;5.70;99.90;;;;;;4993501;28;20208;-41
2020/12/18 03:28:38;;;;;;;12.70;11.60;;;5.70;99.90;;;;;;4993033;28;20784;-43
2020/12/18 03:31:05;;;;;;;12.07;10.73;;;5.70;99.90;;;;;;4993263;28;20214;-41
2020/12/18 03:33:32;;;;;;;12.57;11.37;;;5.70;99.90;;;;;;4993221;28;20210;-42
2020/12/18 03:36:00;;;;;;;11.27;10.27;;;5.90;99.90;;;;;;4992993;28;20230;-41
2020/12/18 03:38:27;;;;;;;12.30;11.30;;;5.90;99.90;;;;;;4993206;28;20264;-42
2020/12/18 03:40:54;;;;;;;12.20;11.10;;;5.90;99.90;;;;;;4993072;28;20401;-42
2020/12/18 03:43:21;;;;;;;11.43;10.53;;;5.80;99.90;;;;;;4993009;28;20380;-41
2020/12/18 03:45:48;;;;;;;11.52;10.52;;;5.80;99.90;;;;;;4992888;28;20221;-42
2020/12/18 03:48:15;;;;;;;11.53;10.53;;;5.70;99.90;;;;;;4992852;28;20314;-42
2020/12/18 03:50:42;;;;;;;12.30;11.13;;;5.70;99.90;;;;;;4993102;28;20218;-41
2020/12/18 03:53:10;;;;;;;11.57;10.57;;;5.70;99.90;;;;;;4993033;28;20216;-42
2020/12/18 03:55:37;;;;;;;11.27;10.23;;;5.60;99.90;;;;;;4992862;28;20240;-41
2020/12/18 03:58:04;;;;;;;12.50;11.37;;;5.70;99.90;;;;;;4992719;28;20218;-41
2020/12/18 04:00:31;;;;;;;12.20;11.10;;;5.60;99.90;;;;;;4992741;28;20217;-42
2020/12/18 04:02:58;;;;;;;11.43;10.43;;;5.60;99.90;;;;;;4992731;28;20317;-43
2020/12/18 04:05:25;;;;;;;11.97;10.97;;;5.60;99.90;;;;;;4993114;28;20304;-42
2020/12/18 04:07:52;;;;;;;11.30;10.40;;;5.70;99.90;;;;;;4992632;28;20217;-44
2020/12/18 04:10:21;;;;;;;11.33;10.23;;;5.70;99.90;;;;;;4992403;28;20702;-41
2020/12/18 04:12:48;;;;;;;11.40;10.40;;;5.80;99.90;;;;;;4992488;28;20236;-42
2020/12/18 04:15:15;;;;;;;11.27;10.27;;;5.80;99.90;;;;;;4992419;28;20316;-43
2020/12/18 04:17:45;;;;;;;11.40;10.40;;;5.70;99.90;;;;;;4992431;28;20608;-41
2020/12/18 04:20:12;;;;;;;11.43;10.33;;;5.70;99.90;;;;;;4991759;28;20692;-41
2020/12/18 04:22:39;;;;;;;13.57;12.27;;;5.70;99.90;;;;;;4992496;28;20206;-41
2020/12/18 04:25:06;;;;;;;11.60;10.60;;;5.70;99.90;;;;;;4994645;28;20550;-43
2020/12/18 04:27:34;;;;;;;11.40;10.50;;;5.70;99.90;;;;;;4996172;28;20739;-42
2020/12/18 04:30:02;;;;;;;10.53;9.63;;;5.70;99.90;;;;;;4996357;28;20210;-41
2020/12/18 04:32:30;;;;;;;11.87;10.77;;;5.80;99.90;;;;;;4996638;28;20214;-42
2020/12/18 04:34:57;;;;;;;11.23;10.33;;;5.80;99.90;;;;;;4996462;28;20702;-41
2020/12/18 04:37:24;;;;;;;10.33;9.53;;;5.80;99.90;;;;;;4996814;28;20257;-42
2020/12/18 04:39:51;;;;;;;10.73;9.83;;;5.90;99.90;;;;;;4996600;28;20248;-42
2020/12/18 04:42:19;;;;;;;10.17;9.37;;;5.90;99.90;;;;;;4996575;28;20237;-42
2020/12/18 04:44:47;;;;;;;10.13;9.23;;;6.00;99.90;;;;;;4996619;28;20214;-41
2020/12/18 04:47:15;;;;;;;10.43;9.27;;;6.00;99.90;;;;;;4996433;28;20297;-41
2020/12/18 04:49:42;;;;;;;10.35;9.45;;;6.00;99.90;;;;;;4996190;28;20210;-40
2020/12/18 04:52:11;;;;;;;10.35;9.45;;;6.00;99.90;;;;;;4996160;28;20214;-42
2020/12/18 04:54:41;;;;;;;11.73;10.73;;;5.90;99.90;;;;;;4995777;28;20264;-44
2020/12/18 04:57:10;;;;;;;10.40;9.50;;;5.90;99.90;;;;;;4995588;28;20292;-41
2020/12/18 04:59:40;;;;;;;11.27;10.37;;;5.80;99.90;;;;;;4995967;28;20217;-41
2020/12/18 05:02:07;;;;;;;9.83;9.03;;;5.70;99.90;;;;;;4995836;28;20776;-41
2020/12/18 05:04:39;;;;;;;9.90;9.10;;;5.80;99.90;;;;;;4995836;28;20220;-41
2020/12/18 05:07:07;;;;;;;10.77;9.77;;;5.80;99.90;;;;;;4995685;28;20245;-41
2020/12/18 05:09:34;;;;;;;11.77;10.57;;;5.80;99.90;;;;;;4995336;28;20240;-42
2020/12/18 05:12:08;;;;;;;10.00;9.20;;;5.90;99.90;;;;;;4995701;28;20245;-43
2020/12/18 05:14:36;;;;;;;11.20;10.20;;;5.90;99.90;;;;;;4995801;28;20237;-41
2020/12/18 05:17:07;;;;;;;10.13;9.23;;;5.90;99.90;;;;;;4995415;28;20236;-41
2020/12/18 05:19:38;;;;;;;19.67;16.60;;;5.90;99.90;;;;;;4995384;28;20321;-43
2020/12/18 05:22:06;;;;;;;9.90;9.10;;;5.90;99.90;;;;;;4995209;28;20246;-44
2020/12/18 05:24:36;;;;;;;11.57;10.57;;;5.90;99.90;;;;;;4995126;28;20297;-42
2020/12/18 05:27:04;;;;;;;11.32;10.32;;;5.80;99.90;;;;;;4995122;28;20242;-41
2020/12/18 05:29:31;;;;;;;68.03;49.40;;;5.70;99.90;;;;;;4996842;28;20624;-43
2020/12/18 05:32:00;;;;;;;32.60;28.10;;;5.60;99.90;;;;;;4995247;28;20284;-41
2020/12/18 05:34:28;;;;;;;12.20;10.97;;;5.50;99.90;;;;;;4995430;28;20739;-42
2020/12/18 05:36:56;;;;;;;11.40;10.27;;;5.40;99.90;;;;;;4994834;28;20225;-40
2020/12/18 05:39:23;;;;;;;10.60;9.70;;;5.40;99.90;;;;;;4995230;28;20214;-43
2020/12/18 05:41:58;;;;;;;11.07;10.10;;;5.50;99.90;;;;;;4996554;28;20715;-41
2020/12/18 05:44:25;;;;;;;11.13;10.13;;;5.50;99.90;;;;;;4995147;28;20590;-39
2020/12/18 05:46:53;;;;;;;12.30;11.30;;;5.50;99.90;;;;;;4994912;28;20307;-40
2020/12/18 05:49:33;;;;;;;11.13;10.13;;;5.50;99.90;;;;;;4994896;28;20735;-41
2020/12/18 05:52:00;;;;;;;49.17;37.47;;;5.60;99.90;;;;;;4995117;28;20390;-41
2020/12/18 05:54:35;;;;;;;11.63;10.57;;;5.60;99.90;;;;;;4995122;28;20214;-42
2020/12/18 05:57:10;;;;;;;11.63;10.53;;;5.60;99.90;;;;;;4994675;28;20320;-40
2020/12/18 05:59:42;;;;;;;11.07;10.07;;;5.60;99.90;;;;;;4994644;28;20975;-40
2020/12/18 06:02:12;;;;;;;12.17;11.13;;;5.60;99.90;;;;;;4995041;28;20336;-40
2020/12/18 06:04:40;;;;;;;10.87;9.90;;;5.60;99.90;;;;;;4994718;28;20218;-41
2020/12/18 06:07:08;;;;;;;11.47;10.57;;;5.60;99.90;;;;;;4994528;28;20654;-40
2020/12/18 06:09:37;;;;;;;12.80;11.63;;;5.60;99.90;;;;;;4994668;28;20708;-40
2020/12/18 06:12:08;;;;;;;11.93;10.93;;;5.70;99.90;;;;;;4994461;28;20638;-44
2020/12/18 06:14:35;;;;;;;14.40;13.10;;;5.70;99.90;;;;;;4994379;28;20676;-41
2020/12/18 06:17:07;;;;;;;13.57;12.17;;;5.70;99.90;;;;;;4994478;28;20709;-43
2020/12/18 06:19:40;;;;;;;11.53;10.53;;;5.70;99.90;;;;;;4994647;28;20712;-41
2020/12/18 06:22:11;;;;;;;11.30;10.30;;;5.70;99.90;;;;;;4994521;28;20255;-41
2020/12/18 06:24:41;;;;;;;11.33;10.23;;;5.70;99.90;;;;;;4994466;28;20571;-41
2020/12/18 06:27:12;;;;;;;11.57;10.57;;;5.70;99.90;;;;;;4994054;28;20709;-42
2020/12/18 06:29:40;;;;;;;12.35;11.13;;;5.70;99.90;;;;;;4994440;28;20206;-40
2020/12/18 06:32:24;;;;;;;13.50;12.27;;;5.70;99.90;;;;;;4994233;28;20250;-41
2020/12/18 06:34:52;;;;;;;19.67;17.77;;;5.70;99.90;;;;;;4994032;28;20216;-41
2020/12/18 06:37:27;;;;;;;12.00;11.00;;;5.80;99.90;;;;;;4993905;28;20237;-41
2020/12/18 06:39:54;;;;;;;11.40;10.40;;;5.70;99.90;;;;;;4994152;28;20323;-41
2020/12/18 06:42:22;;;;;;;11.40;10.40;;;5.70;99.90;;;;;;4993960;28;20212;-40
2020/12/18 06:44:50;;;;;;;11.48;10.40;;;5.70;99.90;;;;;;4993906;28;20214;-42
2020/12/18 06:47:20;;;;;;;11.37;10.37;;;5.60;99.90;;;;;;4993267;28;20229;-43
2020/12/18 06:50:06;;;;;;;12.40;11.23;;;5.50;99.90;;;;;;4993534;28;20305;-41
2020/12/18 06:52:48;;;;;;;12.85;11.75;;;5.50;99.90;;;;;;4993804;28;20244;-43
2020/12/18 06:55:39;;;;;;;12.50;11.20;;;5.50;99.90;;;;;;4993890;28;20256;-41
2020/12/18 06:58:14;;;;;;;13.20;11.80;;;5.60;99.90;;;;;;4993917;28;20293;-41
2020/12/18 07:00:46;;;;;;;33.07;29.97;;;5.70;99.90;;;;;;4993753;28;20631;-41
2020/12/18 07:03:35;;;;;;;15.90;14.50;;;5.70;99.90;;;;;;4993753;28;20214;-41
2020/12/18 07:06:08;;;;;;;11.87;10.70;;;5.80;99.90;;;;;;4993713;28;20293;-41
2020/12/18 07:08:36;;;;;;;10.73;9.83;;;5.70;99.90;;;;;;4994122;28;20206;-41
2020/12/18 07:11:06;;;;;;;10.47;8.97;;;5.70;99.90;;;;;;4993577;28;20217;-41
2020/12/18 07:13:33;;;;;;;9.43;8.43;;;5.70;99.90;;;;;;4993499;28;20210;-41
2020/12/18 07:16:08;;;;;;;13.37;12.07;;;5.70;99.90;;;;;;4993282;28;20381;-43
2020/12/18 07:18:37;;;;;;;10.03;9.23;;;5.70;99.90;;;;;;4993174;28;20297;-42
2020/12/18 07:21:06;;;;;;;9.47;8.67;;;5.70;99.90;;;;;;4993652;28;20742;-42
2020/12/18 07:23:36;;;;;;;9.80;8.90;;;5.80;99.90;;;;;;4993138;28;20313;-42
2020/12/18 07:26:04;;;;;;;11.20;10.20;;;5.90;99.90;;;;;;4993250;28;20241;-41
2020/12/18 07:28:32;;;;;;;13.87;12.77;;;5.90;99.90;;;;;;4992954;28;20328;-43
2020/12/18 07:31:00;;;;;;;12.33;11.23;;;5.90;99.90;;;;;;4993081;28;20218;-42
2020/12/18 07:33:27;;;;;;;11.40;10.30;;;5.90;99.90;;;;;;4993092;28;20958;-42
2020/12/18 07:35:56;;;;;;;11.63;10.63;;;6.00;99.90;;;;;;4993515;28;20304;-41
2020/12/18 07:38:26;;;;;;;12.53;11.43;;;6.10;99.90;;;;;;4993090;28;20237;-43
2020/12/18 07:40:56;;;;;;;13.57;12.27;;;6.10;99.90;;;;;;4993143;28;20218;-43
2020/12/18 07:43:26;;;;;;;12.40;11.15;;;6.20;99.90;;;;;;4994302;28;20237;-42
2020/12/18 07:45:55;;;;;;;14.73;13.52;;;6.20;99.90;;;;;;4992756;28;20707;-40
2020/12/18 07:48:27;;;;;;;11.90;10.80;;;6.30;99.90;;;;;;4992865;28;20673;-41
2020/12/18 07:51:00;;;;;;;10.20;9.40;;;6.30;99.90;;;;;;4992870;28;20618;-41
2020/12/18 07:53:29;;;;;;;11.03;10.03;;;6.20;99.90;;;;;;4992871;28;20305;-41
2020/12/18 07:56:08;;;;;;;11.57;10.37;;;6.10;99.90;;;;;;4992810;28;20311;-41
2020/12/18 07:58:45;;;;;;;10.13;9.27;;;6.10;99.90;;;;;;4993213;28;20739;-42
2020/12/18 08:01:13;;;;;;;12.43;10.57;;;6.20;99.90;;;;;;4993206;28;20260;-42
2020/12/18 08:03:45;;;;;;;10.70;9.67;;;6.20;99.90;;;;;;4993144;28;20257;-42
2020/12/18 08:06:17;;;;;;;10.17;9.27;;;6.40;99.90;;;;;;4992951;28;20720;-42
2020/12/18 08:08:57;;;;;;;10.73;9.67;;;6.50;99.90;;;;;;4992959;28;20213;-41
2020/12/18 08:11:26;;;;;;;10.97;9.90;;;6.60;99.90;;;;;;4993011;28;20206;-42
2020/12/18 08:13:56;;;;;;;10.30;9.40;;;6.70;99.90;;;;;;4992986;28;20242;-41
2020/12/18 08:16:24;;;;;;;10.13;9.33;;;6.70;99.90;;;;;;4992555;28;20284;-42
2020/12/18 08:18:53;;;;;;;11.80;10.80;;;6.80;99.90;;;;;;4992807;28;20206;-44
2020/12/18 08:21:24;;;;;;;16.10;14.60;;;6.80;99.90;;;;;;4992672;28;20320;-43
2020/12/18 08:24:02;;;;;;;15.43;12.43;;;6.90;99.90;;;;;;4992812;28;20284;-43
2020/12/18 08:26:34;;;;;;;10.30;9.40;;;7.00;99.90;;;;;;4992720;28;20277;-42
2020/12/18 08:29:03;;;;;;;13.33;12.10;;;7.00;99.90;;;;;;4992479;28;20242;-42
2020/12/18 08:31:32;;;;;;;32.23;29.20;;;7.00;99.90;;;;;;4992733;28;20238;-42
2020/12/18 08:34:07;;;;;;;13.82;12.38;;;7.00;99.90;;;;;;4992783;28;20254;-41
2020/12/18 08:36:40;;;;;;;10.20;9.30;;;7.00;99.90;;;;;;4992787;28;20252;-42
2020/12/18 08:39:10;;;;;;;10.67;9.77;;;7.10;99.90;;;;;;4992805;28;20224;-43
2020/12/18 08:41:43;;;;;;;10.10;9.20;;;7.10;99.90;;;;;;4992962;28;20214;-42
2020/12/18 08:44:12;;;;;;;10.27;9.37;;;7.10;99.90;;;;;;4992466;28;20744;-41
2020/12/18 08:46:40;;;;;;;9.33;8.40;;;7.10;99.90;;;;;;4993135;28;20716;-43
2020/12/18 08:49:18;;;;;;;10.50;9.50;;;7.10;99.90;;;;;;4992898;28;20669;-41
2020/12/18 08:51:47;;;;;;;11.23;10.33;;;7.00;99.90;;;;;;4992953;28;20584;-41
2020/12/18 08:54:32;;;;;;;10.07;9.17;;;7.00;99.90;;;;;;4992700;28;20214;-43
2020/12/18 08:57:23;;;;;;;9.53;8.73;;;7.10;99.90;;;;;;4993009;28;20684;-41
2020/12/18 09:00:02;;;;;;;10.40;9.50;;;7.10;99.90;;;;;;4992827;28;20721;-42
2020/12/18 09:02:30;;;;;;;11.60;9.20;;;7.10;99.90;;;;;;4992578;28;20280;-41
2020/12/18 09:05:23;;;;;;;9.87;8.90;;;6.90;99.90;;;;;;4992006;28;20254;-43
2020/12/18 09:07:53;;;;;;;9.50;8.60;;;6.90;99.90;;;;;;4992441;28;20242;-43
2020/12/18 09:10:29;;;;;;;10.37;9.50;;;6.80;99.90;;;;;;4992722;28;20301;-42
2020/12/18 09:12:56;;;;;;;11.57;10.57;;;6.80;99.90;;;;;;4996021;28;20684;-44
2020/12/18 09:15:25;;;;;;;20.25;18.35;;;6.80;99.90;;;;;;4995951;28;20298;-42
2020/12/18 09:18:13;;;;;;;11.77;10.67;;;6.90;99.90;;;;;;4996452;28;20281;-43
2020/12/18 09:20:42;;;;;;;23.17;20.90;;;6.90;99.90;;;;;;4990424;28;20351;-43
2020/12/18 09:23:12;;;;;;;12.43;10.30;;;6.90;99.90;;;;;;4995882;28;20214;-42
2020/12/18 09:25:42;;;;;;;10.63;9.63;;;6.90;99.90;;;;;;4995746;28;20214;-42
2020/12/18 09:28:17;;;;;;;11.13;10.33;;;6.90;99.90;;;;;;4995763;28;20320;-41
2020/12/18 09:30:49;;;;;;;10.77;9.77;;;7.00;99.90;;;;;;4996027;28;20213;-42
2020/12/18 09:33:27;;;;;;;9.47;8.63;;;7.00;99.90;;;;;;4995395;28;20237;-42
2020/12/18 09:35:56;;;;;;;10.13;9.27;;;7.00;99.90;;;;;;4995683;28;20212;-42
2020/12/18 09:38:25;;;;;;;11.07;10.03;;;7.10;99.90;;;;;;4995684;28;20309;-44
2020/12/18 09:40:54;;;;;;;9.90;9.00;;;7.10;99.90;;;;;;4995478;28;20210;-42
2020/12/18 09:43:21;;;;;;;9.43;8.53;;;7.10;99.90;;;;;;4995726;28;20245;-43
2020/12/18 09:45:49;;;;;;;9.97;9.10;;;7.20;99.90;;;;;;4995353;28;20221;-42
2020/12/18 09:48:16;;;;;;;9.97;8.97;;;7.20;99.90;;;;;;4995243;28;20206;-43
2020/12/18 09:50:43;;;;;;;10.85;9.85;;;7.20;99.90;;;;;;4995375;28;20206;-45
2020/12/18 09:53:10;;;;;;;10.20;9.30;;;7.20;99.90;;;;;;4995214;28;20304;-42
2020/12/18 09:55:37;;;;;;;9.90;8.97;;;7.30;99.90;;;;;;4995413;28;20252;-42
2020/12/18 09:58:05;;;;;;;9.53;8.50;;;7.30;99.90;;;;;;4995129;28;20712;-43
2020/12/18 10:00:33;;;;;;;9.77;8.88;;;7.40;99.90;;;;;;4995368;28;20386;-41
2020/12/18 10:03:00;;;;;;;10.50;9.60;;;7.40;99.90;;;;;;4995267;28;20305;-42
2020/12/18 10:05:27;;;;;;;14.87;11.30;;;7.50;99.90;;;;;;4994976;28;20241;-41
2020/12/18 10:07:54;;;;;;;10.77;9.67;;;7.60;99.90;;;;;;4995351;28;20569;-41
2020/12/18 10:10:22;;;;;;;10.07;9.27;;;7.60;99.90;;;;;;4994943;28;20214;-42
2020/12/18 10:12:49;;;;;;;10.87;9.87;;;7.60;99.90;;;;;;4995760;28;20284;-42
2020/12/18 10:15:17;;;;;;;10.67;9.77;;;7.70;99.90;;;;;;4994908;28;20218;-46
2020/12/18 10:20:28;;;;;;;11.90;10.57;;;7.80;99.90;;;;;;4935514;29;20251;-42
2020/12/18 10:22:55;;;;;;;16.15;13.75;;;7.90;99.90;;;;;;4936843;29;20298;-43
2020/12/18 10:25:22;;;;;;;74.10;35.33;;;7.90;99.90;;;;;;4937120;29;20216;-41
2020/12/18 10:27:49;;;;;;;11.70;10.50;;;7.90;99.90;;;;;;4936617;29;20236;-41
2020/12/18 10:30:17;;;;;;;10.30;9.40;;;7.90;99.90;;;;;;4936637;29;20236;-44
2020/12/18 10:32:45;;;;;;;15.67;12.13;;;7.90;99.90;;;;;;4936722;29;20567;-42
2020/12/18 10:35:12;;;;;;;10.10;9.07;;;8.00;99.90;;;;;;4937206;29;20212;-42
2020/12/18 10:37:39;;;;;;;10.87;9.87;;;7.90;99.90;;;;;;4936218;29;20259;-43
2020/12/18 10:40:07;;;;;;;11.48;10.48;;;8.00;99.90;;;;;;4936445;29;20246;-43
2020/12/18 10:42:34;;;;;;;26.00;15.45;;;8.00;99.90;;;;;;4936548;29;20307;-41
2020/12/18 10:45:01;;;;;;;10.57;9.55;;;8.10;99.90;;;;;;4936569;29;20239;-41
2020/12/18 10:47:29;;;;;;;11.95;10.77;;;8.20;99.90;;;;;;4938331;28;20223;-42
2020/12/18 10:49:56;;;;;;;14.85;11.75;;;8.30;99.90;;;;;;4935958;29;20690;-42
2020/12/18 10:52:24;;;;;;;10.88;9.88;;;8.40;99.90;;;;;;4935701;29;20213;-44
2020/12/18 10:54:52;;;;;;;11.13;9.98;;;8.50;99.90;;;;;;4935746;29;20742;-42
2020/12/18 10:57:19;;;;;;;11.50;10.45;;;8.50;99.90;;;;;;4935375;29;20228;-42
2020/12/18 10:59:47;;;;;;;10.52;9.48;;;8.50;99.90;;;;;;4935900;29;20244;-43
2020/12/18 11:02:14;;;;;;;13.55;12.25;;;8.60;99.90;;;;;;4935544;29;20706;-44
2020/12/18 11:04:42;;;;;;;13.90;11.33;;;8.70;99.90;;;;;;4935159;29;20303;-40
2020/12/18 11:07:10;;;;;;;10.50;9.43;;;8.70;99.90;;;;;;4935513;29;20295;-40
2020/12/18 11:09:37;;;;;;;10.20;9.30;;;8.70;99.90;;;;;;4935384;29;20306;-42
2020/12/18 11:12:04;;;;;;;12.53;11.43;;;8.80;99.90;;;;;;4935594;29;20389;-41
2020/12/18 11:14:31;;;;;;;10.17;9.27;;;8.90;99.90;;;;;;4935986;29;20226;-41
2020/12/18 11:16:58;;;;;;;9.57;8.68;;;9.00;99.90;;;;;;4935778;29;20604;-41
2020/12/18 11:19:25;;;;;;;12.77;11.53;;;9.10;99.90;;;;;;4935296;29;20748;-42
2020/12/18 11:21:53;;;;;;;10.35;9.32;;;9.10;99.90;;;;;;4935792;29;20251;-42
2020/12/18 11:24:20;;;;;;;9.85;8.85;;;9.10;99.90;;;;;;4935681;29;20220;-43
2020/12/18 11:26:52;;;;;;;9.47;8.23;;;9.10;99.90;;;;;;4935330;29;20627;-43
2020/12/18 11:29:19;;;;;;;8.68;7.88;;;9.20;99.90;;;;;;4935303;29;20215;-42
2020/12/18 11:31:48;;;;;;;9.48;8.68;;;9.20;99.90;;;;;;4935573;29;20307;-40
2020/12/18 11:34:18;;;;;;;10.17;9.07;;;9.30;99.90;;;;;;4935116;29;20552;-41
2020/12/18 11:36:45;;;;;;;10.53;9.53;;;9.30;99.90;;;;;;4935354;29;20635;-41
2020/12/18 11:39:13;;;;;;;8.80;8.05;;;9.30;99.90;;;;;;4935148;29;20713;-42
2020/12/18 11:41:41;;;;;;;11.23;9.35;;;9.30;99.90;;;;;;4935178;29;20690;-43
2020/12/18 11:44:08;;;;;;;9.75;8.73;;;9.30;99.90;;;;;;4934948;29;20759;-41
2020/12/18 11:46:35;;;;;;;9.07;8.27;;;9.30;99.90;;;;;;4935218;29;20675;-41
2020/12/18 11:49:02;;;;;;;9.30;8.40;;;9.40;99.90;;;;;;4934951;29;20294;-41
2020/12/18 11:51:29;;;;;;;10.70;9.63;;;9.40;99.90;;;;;;4935190;29;20550;-42
2020/12/18 11:53:57;;;;;;;9.70;7.73;;;9.50;99.90;;;;;;4934819;29;20579;-42
2020/12/18 11:56:26;;;;;;;9.30;8.50;;;9.50;99.90;;;;;;4934857;29;20228;-42
2020/12/18 11:58:53;;;;;;;9.00;8.20;;;9.50;99.90;;;;;;4934616;29;20252;-42
2020/12/18 12:01:22;;;;;;;9.55;8.68;;;9.50;99.90;;;;;;4934858;29;20211;-41
2020/12/18 12:03:50;;;;;;;10.10;9.03;;;9.50;99.90;;;;;;4934799;29;20216;-42
2020/12/18 12:06:17;;;;;;;9.43;8.55;;;9.60;99.90;;;;;;4934558;29;20212;-41
2020/12/18 12:08:44;;;;;;;9.23;8.20;;;9.60;99.90;;;;;;4934419;29;20247;-41
2020/12/18 12:11:12;;;;;;;14.77;11.43;;;9.50;99.90;;;;;;4934683;29;20250;-41
2020/12/18 12:13:40;;;;;;;9.88;8.95;;;9.50;99.90;;;;;;4934487;29;20211;-40
2020/12/18 12:16:08;;;;;;;9.65;8.73;;;9.40;99.90;;;;;;4934451;29;20242;-41
2020/12/18 12:18:34;;;;;;;13.63;12.18;;;9.30;99.90;;;;;;4934561;29;20275;-41
2020/12/18 12:21:02;;;;;;;20.77;18.57;;;9.40;99.90;;;;;;4934948;29;20216;-41
2020/12/18 12:23:29;;;;;;;34.45;30.90;;;9.40;99.90;;;;;;4934597;29;20236;-41
2020/12/18 12:25:56;;;;;;;13.32;12.05;;;9.30;99.90;;;;;;4934708;29;20303;-42
2020/12/18 12:28:23;;;;;;;10.77;9.77;;;9.30;99.90;;;;;;4934561;29;20212;-42
2020/12/18 12:30:50;;;;;;;12.45;11.05;;;9.40;99.90;;;;;;4934191;29;20247;-41
2020/12/18 12:33:17;;;;;;;13.25;8.77;;;9.30;99.90;;;;;;4934694;28;20298;-42
2020/12/18 12:35:44;;;;;;;9.57;8.70;;;9.30;99.90;;;;;;4934603;29;20306;-43
2020/12/18 12:38:12;;;;;;;11.18;9.93;;;9.30;99.90;;;;;;4934379;29;20540;-41
2020/12/18 12:40:39;;;;;;;8.82;7.72;;;9.30;99.90;;;;;;4934376;29;20687;-42
2020/12/18 12:43:08;;;;;;;10.03;9.13;;;9.40;99.90;;;;;;4935363;29;20222;-42
2020/12/18 12:45:36;;;;;;;13.73;10.25;;;9.40;99.90;;;;;;4934265;29;20227;-42
2020/12/18 12:48:03;;;;;;;8.90;8.00;;;9.40;99.90;;;;;;4938085;29;20396;-43
2020/12/18 12:50:45;;;;;;;8.88;7.95;;;9.40;99.90;;;;;;4938277;29;20212;-42
2020/12/18 12:53:12;;;;;;;9.23;8.15;;;9.40;99.90;;;;;;4938063;29;20218;-41